sensor_id;sensor_type;location;lat;lon;timestamp;pressure;altitude;pressure_sealevel;temperature;humidity
36598;BME280;22607;49.550;11.940;2022-12-18T00:01:51;98147.63;;;-9.21;100.00
36598;BME280;22607;49.550;11.940;2022-12-18T00:04:22;98144.22;;;-9.20;100.00
36598;BME280;22607;49.550;11.940;2022-12-18T00:06:49;98142.34;;;-9.06;100.00
36598;BME280;22607;49.550;11.940;2022-12-18T00:09:30;98135.41;;;-8.94;100.00
36598;BME280;22607;49.550;11.940;2022-12-18T00:12:23;98140.69;;;-9.08;100.00
36598;BME280;22607;49.550;11.940;2022-12-18T00:14:50;98145.09;;;-9.21;100.00
36598;BME280;22607;49.550;11.940;2022-12-18T00:17:16;98150.97;;;-9.18;100.00
36598;BME280;22607;49.550;11.940;2022-12-18T00:19:42;98149.41;;;-9.31;100.00
36598;BME280;22607;49.550;11.940;2022-12-18T00:22:13;98149.41;;;-9.31;100.00
36598;BME280;22607;49.550;11.940;2022-12-18T00:24:39;98156.06;;;-9.18;100.00
36598;BME280;22607;49.550;11.940;2022-12-18T00:27:06;98159.38;;;-9.08;100.00
36598;BME280;22607;49.550;11.940;2022-12-18T00:29:32;98154.19;;;-9.00;100.00
36598;BME280;22607;49.550;11.940;2022-12-18T00:31:58;98165.94;;;-8.90;100.00
36598;BME280;22607;49.550;11.940;2022-12-18T00:34:25;98176.06;;;-8.85;100.00
36598;BME280;22607;49.550;11.940;2022-12-18T00:36:52;98187.22;;;-8.97;100.00
36598;BME280;22607;49.550;11.940;2022-12-18T00:39:18;98183.66;;;-8.82;100.00
36598;BME280;22607;49.550;11.940;2022-12-18T00:41:44;98176.69;;;-8.67;100.00
36598;BME280;22607;49.550;11.940;2022-12-18T00:44:29;98191.06;;;-8.62;100.00
36598;BME280;22607;49.550;11.940;2022-12-18T00:50:18;98188.75;;;-8.82;100.00
36598;BME280;22607;49.550;11.940;2022-12-18T00:52:44;98195.47;;;-8.75;100.00
36598;BME280;22607;49.550;11.940;2022-12-18T00:55:11;98187.84;;;-8.76;100.00
36598;BME280;22607;49.550;11.940;2022-12-18T00:57:37;98190.34;;;-8.72;100.00
36598;BME280;22607;49.550;11.940;2022-12-18T01:00:07;98188.56;;;-8.66;100.00
36598;BME280;22607;49.550;11.940;2022-12-18T01:02:34;98186.69;;;-8.52;100.00
36598;BME280;22607;49.550;11.940;2022-12-18T01:05:01;98185.06;;;-8.56;100.00
36598;BME280;22607;49.550;11.940;2022-12-18T01:07:28;98186.69;;;-8.52;100.00
36598;BME280;22607;49.550;11.940;2022-12-18T01:09:54;98190.97;;;-8.54;100.00
36598;BME280;22607;49.550;11.940;2022-12-18T01:12:20;98179.19;;;-8.61;100.00
36598;BME280;22607;49.550;11.940;2022-12-18T01:14:47;98190.28;;;-8.65;100.00
36598;BME280;22607;49.550;11.940;2022-12-18T01:17:13;98193.63;;;-8.62;100.00
36598;BME280;22607;49.550;11.940;2022-12-18T01:19:41;98188.56;;;-8.65;100.00
36598;BME280;22607;49.550;11.940;2022-12-18T01:24:39;98187.47;;;-8.48;100.00
36598;BME280;22607;49.550;11.940;2022-12-18T01:29:35;98202.84;;;-8.53;100.00
36598;BME280;22607;49.550;11.940;2022-12-18T01:32:01;98199.50;;;-8.58;100.00
36598;BME280;22607;49.550;11.940;2022-12-18T01:34:28;98211.47;;;-8.65;100.00
36598;BME280;22607;49.550;11.940;2022-12-18T01:36:54;98207.28;;;-8.67;100.00
36598;BME280;22607;49.550;11.940;2022-12-18T01:39:20;98213.03;;;-8.53;100.00
36598;BME280;22607;49.550;11.940;2022-12-18T01:41:47;98212.88;;;-8.44;100.00
36598;BME280;22607;49.550;11.940;2022-12-18T01:47:36;98211.13;;;-8.38;100.00
36598;BME280;22607;49.550;11.940;2022-12-18T01:52:42;98199.25;;;-8.41;100.00
36598;BME280;22607;49.550;11.940;2022-12-18T01:55:10;98199.19;;;-8.35;100.00
36598;BME280;22607;49.550;11.940;2022-12-18T01:57:37;98191.66;;;-8.44;100.00
36598;BME280;22607;49.550;11.940;2022-12-18T02:00:06;98188.16;;;-8.35;100.00
36598;BME280;22607;49.550;11.940;2022-12-18T02:02:33;98201.00;;;-8.45;100.00
36598;BME280;22607;49.550;11.940;2022-12-18T02:04:59;98212.97;;;-8.50;100.00
36598;BME280;22607;49.550;11.940;2022-12-18T02:10:20;98210.03;;;-8.19;100.00
36598;BME280;22607;49.550;11.940;2022-12-18T02:12:53;98213.34;;;-8.13;100.00
36598;BME280;22607;49.550;11.940;2022-12-18T02:15:27;98217.53;;;-8.09;100.00
36598;BME280;22607;49.550;11.940;2022-12-18T02:18:16;98213.28;;;-8.10;100.00
36598;BME280;22607;49.550;11.940;2022-12-18T02:20:46;98216.06;;;-8.27;100.00
36598;BME280;22607;49.550;11.940;2022-12-18T02:24:00;98208.25;;;-8.13;100.00
36598;BME280;22607;49.550;11.940;2022-12-18T02:28:45;98211.81;;;-8.24;100.00
36598;BME280;22607;49.550;11.940;2022-12-18T02:34:14;98206.69;;;-8.24;100.00
36598;BME280;22607;49.550;11.940;2022-12-18T02:36:41;98217.97;;;-8.42;100.00
36598;BME280;22607;49.550;11.940;2022-12-18T02:39:10;98222.94;;;-8.31;100.00
36598;BME280;22607;49.550;11.940;2022-12-18T02:41:37;98227.28;;;-8.41;100.00
36598;BME280;22607;49.550;11.940;2022-12-18T02:44:18;98216.66;;;-8.08;100.00
36598;BME280;22607;49.550;11.940;2022-12-18T02:46:46;98207.28;;;-8.06;100.00
36598;BME280;22607;49.550;11.940;2022-12-18T02:54:13;98208.13;;;-8.04;100.00
36598;BME280;22607;49.550;11.940;2022-12-18T02:56:46;98202.88;;;-7.93;100.00
36598;BME280;22607;49.550;11.940;2022-12-18T02:59:16;98201.25;;;-7.99;100.00
36598;BME280;22607;49.550;11.940;2022-12-18T03:06:48;98206.34;;;-7.99;100.00
36598;BME280;22607;49.550;11.940;2022-12-18T03:09:19;98204.53;;;-7.91;100.00
36598;BME280;22607;49.550;11.940;2022-12-18T03:11:55;98202.94;;;-7.99;100.00
36598;BME280;22607;49.550;11.940;2022-12-18T03:14:41;98210.81;;;-8.15;100.00
36598;BME280;22607;49.550;11.940;2022-12-18T03:17:10;98198.00;;;-8.10;100.00
36598;BME280;22607;49.550;11.940;2022-12-18T03:19:39;98207.28;;;-8.08;100.00
36598;BME280;22607;49.550;11.940;2022-12-18T03:22:06;98209.00;;;-8.07;100.00
36598;BME280;22607;49.550;11.940;2022-12-18T03:24:34;98204.84;;;-8.14;100.00
36598;BME280;22607;49.550;11.940;2022-12-18T03:27:09;98216.72;;;-8.11;100.00
36598;BME280;22607;49.550;11.940;2022-12-18T03:35:16;98204.53;;;-7.91;100.00
36598;BME280;22607;49.550;11.940;2022-12-18T03:37:45;98209.47;;;-7.81;100.00
36598;BME280;22607;49.550;11.940;2022-12-18T03:40:12;98209.53;;;-7.84;100.00
36598;BME280;22607;49.550;11.940;2022-12-18T03:42:48;98208.78;;;-7.93;100.00
36598;BME280;22607;49.550;11.940;2022-12-18T03:54:03;98218.31;;;-8.04;100.00
36598;BME280;22607;49.550;11.940;2022-12-18T04:02:23;98227.38;;;-7.84;100.00
36598;BME280;22607;49.550;11.940;2022-12-18T04:04:51;98227.00;;;-7.59;100.00
36598;BME280;22607;49.550;11.940;2022-12-18T04:07:19;98226.63;;;-7.36;100.00
36598;BME280;22607;49.550;11.940;2022-12-18T04:09:47;98230.25;;;-7.51;100.00
36598;BME280;22607;49.550;11.940;2022-12-18T04:18:16;98222.88;;;-7.67;100.00
36598;BME280;22607;49.550;11.940;2022-12-18T04:23:39;98233.75;;;-7.57;100.00
36598;BME280;22607;49.550;11.940;2022-12-18T04:26:06;98239.88;;;-7.67;100.00
36598;BME280;22607;49.550;11.940;2022-12-18T04:28:43;98238.06;;;-7.60;100.00
36598;BME280;22607;49.550;11.940;2022-12-18T04:31:09;98247.41;;;-7.59;100.00
36598;BME280;22607;49.550;11.940;2022-12-18T04:33:36;98235.19;;;-7.39;100.00
36598;BME280;22607;49.550;11.940;2022-12-18T04:36:03;98240.47;;;-7.49;100.00
36598;BME280;22607;49.550;11.940;2022-12-18T04:38:29;98250.66;;;-7.49;100.00
36598;BME280;22607;49.550;11.940;2022-12-18T04:40:55;98267.00;;;-7.61;100.00
36598;BME280;22607;49.550;11.940;2022-12-18T04:43:22;98266.50;;;-7.84;100.00
36598;BME280;22607;49.550;11.940;2022-12-18T04:48:35;98255.03;;;-7.56;100.00
36598;BME280;22607;49.550;11.940;2022-12-18T04:53:52;98265.13;;;-7.50;100.00
36598;BME280;22607;49.550;11.940;2022-12-18T04:56:18;98262.19;;;-7.80;100.00
36598;BME280;22607;49.550;11.940;2022-12-18T04:58:44;98263.06;;;-7.83;100.00
36598;BME280;22607;49.550;11.940;2022-12-18T05:01:17;98265.09;;;-7.47;100.00
36598;BME280;22607;49.550;11.940;2022-12-18T05:03:44;98260.13;;;-7.56;100.00
36598;BME280;22607;49.550;11.940;2022-12-18T05:06:11;98260.38;;;-7.72;100.00
36598;BME280;22607;49.550;11.940;2022-12-18T05:08:37;98253.50;;;-7.68;100.00
36598;BME280;22607;49.550;11.940;2022-12-18T05:11:07;98250.38;;;-7.87;100.00
36598;BME280;22607;49.550;11.940;2022-12-18T05:13:34;98253.03;;;-7.95;100.00
36598;BME280;22607;49.550;11.940;2022-12-18T05:16:01;98257.19;;;-7.86;100.00
36598;BME280;22607;49.550;11.940;2022-12-18T05:18:28;98256.28;;;-7.84;100.00
36598;BME280;22607;49.550;11.940;2022-12-18T05:20:55;98260.56;;;-7.87;100.00
36598;BME280;22607;49.550;11.940;2022-12-18T05:23:29;98265.50;;;-7.73;100.00
36598;BME280;22607;49.550;11.940;2022-12-18T05:25:57;98267.03;;;-7.65;100.00
36598;BME280;22607;49.550;11.940;2022-12-18T05:31:01;98268.72;;;-7.64;100.00
36598;BME280;22607;49.550;11.940;2022-12-18T05:33:29;98256.94;;;-7.69;100.00
36598;BME280;22607;49.550;11.940;2022-12-18T05:35:59;98266.41;;;-7.79;100.00
36598;BME280;22607;49.550;11.940;2022-12-18T05:38:26;98256.97;;;-7.74;100.00
36598;BME280;22607;49.550;11.940;2022-12-18T05:40:53;98264.50;;;-7.65;100.00
36598;BME280;22607;49.550;11.940;2022-12-18T05:46:22;98271.88;;;-7.46;100.00
36598;BME280;22607;49.550;11.940;2022-12-18T05:49:04;98275.94;;;-7.35;100.00
36598;BME280;22607;49.550;11.940;2022-12-18T05:51:30;98270.78;;;-7.31;100.00
36598;BME280;22607;49.550;11.940;2022-12-18T05:54:14;98276.94;;;-7.43;100.00
36598;BME280;22607;49.550;11.940;2022-12-18T05:56:41;98272.75;;;-7.48;100.00
36598;BME280;22607;49.550;11.940;2022-12-18T05:59:14;98269.34;;;-7.47;100.00
36598;BME280;22607;49.550;11.940;2022-12-18T06:01:40;98275.16;;;-7.39;100.00
36598;BME280;22607;49.550;11.940;2022-12-18T06:04:09;98284.31;;;-7.26;100.00
36598;BME280;22607;49.550;11.940;2022-12-18T06:06:40;98276.03;;;-7.40;100.00
36598;BME280;22607;49.550;11.940;2022-12-18T06:12:42;98278.34;;;-7.25;100.00
36598;BME280;22607;49.550;11.940;2022-12-18T06:15:08;98276.63;;;-7.24;100.00
36598;BME280;22607;49.550;11.940;2022-12-18T06:17:36;98272.47;;;-7.30;100.00
36598;BME280;22607;49.550;11.940;2022-12-18T06:20:03;98278.19;;;-7.17;100.00
36598;BME280;22607;49.550;11.940;2022-12-18T06:22:30;98279.66;;;-7.02;100.00
36598;BME280;22607;49.550;11.940;2022-12-18T06:24:57;98288.41;;;-7.17;100.00
36598;BME280;22607;49.550;11.940;2022-12-18T06:30:16;98292.16;;;-7.36;100.00
36598;BME280;22607;49.550;11.940;2022-12-18T06:32:42;98295.41;;;-7.27;100.00
36598;BME280;22607;49.550;11.940;2022-12-18T06:37:57;98303.97;;;-7.29;100.00
36598;BME280;22607;49.550;11.940;2022-12-18T06:40:23;98298.88;;;-7.31;100.00
36598;BME280;22607;49.550;11.940;2022-12-18T06:42:59;98303.97;;;-7.29;100.00
36598;BME280;22607;49.550;11.940;2022-12-18T06:45:25;98308.38;;;-7.41;100.00
36598;BME280;22607;49.550;11.940;2022-12-18T06:47:57;98308.38;;;-7.41;100.00
36598;BME280;22607;49.550;11.940;2022-12-18T06:50:24;98319.50;;;-7.45;100.00
36598;BME280;22607;49.550;11.940;2022-12-18T06:52:53;98319.50;;;-7.45;100.00
36598;BME280;22607;49.550;11.940;2022-12-18T06:55:20;98320.97;;;-7.28;100.00
36598;BME280;22607;49.550;11.940;2022-12-18T07:00:36;98330.41;;;-7.33;100.00
36598;BME280;22607;49.550;11.940;2022-12-18T07:03:03;98327.81;;;-7.30;100.00
36598;BME280;22607;49.550;11.940;2022-12-18T07:05:29;98325.97;;;-7.22;100.00
36598;BME280;22607;49.550;11.940;2022-12-18T07:07:55;98323.09;;;-7.03;100.00
36598;BME280;22607;49.550;11.940;2022-12-18T07:10:22;98320.78;;;-7.17;100.00
36598;BME280;22607;49.550;11.940;2022-12-18T07:12:48;98319.03;;;-7.14;100.00
36598;BME280;22607;49.550;11.940;2022-12-18T07:15:15;98319.00;;;-7.12;100.00
36598;BME280;22607;49.550;11.940;2022-12-18T07:17:41;98317.22;;;-7.08;100.00
36598;BME280;22607;49.550;11.940;2022-12-18T07:20:08;98318.03;;;-7.05;100.00
36598;BME280;22607;49.550;11.940;2022-12-18T07:22:52;98307.53;;;-6.88;100.00
36598;BME280;22607;49.550;11.940;2022-12-18T07:25:21;98311.81;;;-6.90;100.00
36598;BME280;22607;49.550;11.940;2022-12-18T07:27:48;98311.31;;;-7.09;100.00
36598;BME280;22607;49.550;11.940;2022-12-18T07:30:14;98319.16;;;-7.23;100.00
36598;BME280;22607;49.550;11.940;2022-12-18T07:47:54;98325.72;;;-7.06;100.00
36598;BME280;22607;49.550;11.940;2022-12-18T07:53:21;98344.22;;;-6.92;100.00
36598;BME280;22607;49.550;11.940;2022-12-18T07:55:48;98351.06;;;-6.94;100.00
36598;BME280;22607;49.550;11.940;2022-12-18T07:58:34;98351.72;;;-6.81;100.00
36598;BME280;22607;49.550;11.940;2022-12-18T08:06:25;98353.84;;;-6.57;100.00
36598;BME280;22607;49.550;11.940;2022-12-18T08:08:55;98354.72;;;-6.59;100.00
36598;BME280;22607;49.550;11.940;2022-12-18T08:14:04;98363.28;;;-6.61;100.00
36598;BME280;22607;49.550;11.940;2022-12-18T08:16:30;98356.50;;;-6.62;100.00
36598;BME280;22607;49.550;11.940;2022-12-18T08:18:57;98357.34;;;-6.63;100.00
36598;BME280;22607;49.550;11.940;2022-12-18T08:21:27;98366.28;;;-6.37;100.00
36598;BME280;22607;49.550;11.940;2022-12-18T08:26:55;98362.28;;;-6.54;100.00
36598;BME280;22607;49.550;11.940;2022-12-18T08:29:43;98352.94;;;-6.53;100.00
36598;BME280;22607;49.550;11.940;2022-12-18T08:32:09;98358.88;;;-6.51;100.00
36598;BME280;22607;49.550;11.940;2022-12-18T08:34:53;98361.25;;;-6.42;100.00
36598;BME280;22607;49.550;11.940;2022-12-18T08:37:22;98360.22;;;-6.31;100.00
36598;BME280;22607;49.550;11.940;2022-12-18T08:42:42;98366.88;;;-6.72;100.00
36598;BME280;22607;49.550;11.940;2022-12-18T08:45:27;98360.84;;;-6.20;100.00
36598;BME280;22607;49.550;11.940;2022-12-18T08:54:10;98369.84;;;-6.02;100.00
36598;BME280;22607;49.550;11.940;2022-12-18T08:56:37;98371.50;;;-5.99;100.00
36598;BME280;22607;49.550;11.940;2022-12-18T08:59:03;98376.88;;;-6.12;100.00
36598;BME280;22607;49.550;11.940;2022-12-18T09:01:30;98367.75;;;-5.84;100.00
36598;BME280;22607;49.550;11.940;2022-12-18T09:03:57;98369.34;;;-5.77;100.00
36598;BME280;22607;49.550;11.940;2022-12-18T09:06:24;98367.63;;;-5.76;99.94
36598;BME280;22607;49.550;11.940;2022-12-18T09:09:06;98369.91;;;-5.64;98.84
36598;BME280;22607;49.550;11.940;2022-12-18T09:11:32;98366.44;;;-5.61;99.13
36598;BME280;22607;49.550;11.940;2022-12-18T09:14:10;98360.41;;;-5.59;98.54
36598;BME280;22607;49.550;11.940;2022-12-18T09:16:37;98361.31;;;-5.61;97.81
36598;BME280;22607;49.550;11.940;2022-12-18T09:19:04;98360.50;;;-5.62;97.66
36598;BME280;22607;49.550;11.940;2022-12-18T09:21:33;98360.50;;;-5.62;98.37
36598;BME280;22607;49.550;11.940;2022-12-18T09:24:02;98367.34;;;-5.64;97.92
36598;BME280;22607;49.550;11.940;2022-12-18T09:26:30;98357.66;;;-5.49;97.20
36598;BME280;22607;49.550;11.940;2022-12-18T09:29:12;98351.66;;;-5.48;97.84
36598;BME280;22607;49.550;11.940;2022-12-18T09:34:13;98355.22;;;-5.56;97.32
36598;BME280;22607;49.550;11.940;2022-12-18T09:36:39;98353.56;;;-5.57;96.18
36598;BME280;22607;49.550;11.940;2022-12-18T09:42:04;98359.41;;;-5.51;96.65
36598;BME280;22607;49.550;11.940;2022-12-18T09:44:32;98354.13;;;-5.44;95.72
36598;BME280;22607;49.550;11.940;2022-12-18T09:47:13;98350.34;;;-5.27;96.59
36598;BME280;22607;49.550;11.940;2022-12-18T09:49:43;98351.66;;;-5.48;96.69
36598;BME280;22607;49.550;11.940;2022-12-18T09:54:44;98340.41;;;-5.05;93.38
36598;BME280;22607;49.550;11.940;2022-12-18T09:57:13;98347.94;;;-5.35;94.29
36598;BME280;22607;49.550;11.940;2022-12-18T09:59:40;98345.91;;;-5.20;94.44
36598;BME280;22607;49.550;11.940;2022-12-18T10:05:52;98335.44;;;-5.11;93.10
36598;BME280;22607;49.550;11.940;2022-12-18T10:08:32;98334.06;;;-5.24;93.69
36598;BME280;22607;49.550;11.940;2022-12-18T10:29:12;98320.97;;;-4.79;91.83
36598;BME280;22607;49.550;11.940;2022-12-18T10:31:56;98314.63;;;-4.98;91.72
36598;BME280;22607;49.550;11.940;2022-12-18T10:37:14;98308.72;;;-4.67;89.64
36598;BME280;22607;49.550;11.940;2022-12-18T10:39:44;98309.38;;;-4.92;90.96
36598;BME280;22607;49.550;11.940;2022-12-18T10:42:13;98308.06;;;-4.76;90.35
36598;BME280;22607;49.550;11.940;2022-12-18T10:44:42;98298.09;;;-4.87;91.09
36598;BME280;22607;49.550;11.940;2022-12-18T10:47:11;98304.25;;;-4.59;90.75
36598;BME280;22607;49.550;11.940;2022-12-18T10:49:38;98304.22;;;-4.57;91.05
36598;BME280;22607;49.550;11.940;2022-12-18T10:55:31;98310.22;;;-4.27;90.84
36598;BME280;22607;49.550;11.940;2022-12-18T11:06:31;98314.09;;;-4.13;88.33
36598;BME280;22607;49.550;11.940;2022-12-18T11:11:58;98317.13;;;-3.99;88.21
36598;BME280;22607;49.550;11.940;2022-12-18T11:14:27;98314.97;;;-3.83;87.42
36598;BME280;22607;49.550;11.940;2022-12-18T11:17:17;98318.72;;;-3.94;87.61
36598;BME280;22607;49.550;11.940;2022-12-18T11:19:58;98313.75;;;-4.01;86.79
36598;BME280;22607;49.550;11.940;2022-12-18T11:22:30;98311.72;;;-3.89;87.33
36598;BME280;22607;49.550;11.940;2022-12-18T11:24:58;98301.75;;;-3.70;86.08
36598;BME280;22607;49.550;11.940;2022-12-18T11:27:55;98295.34;;;-3.57;85.65
36598;BME280;22607;49.550;11.940;2022-12-18T11:30:35;98301.28;;;-3.27;84.13
36598;BME280;22607;49.550;11.940;2022-12-18T11:33:20;98299.19;;;-3.14;84.38
36598;BME280;22607;49.550;11.940;2022-12-18T11:39:23;98294.72;;;-3.09;83.52
36598;BME280;22607;49.550;11.940;2022-12-18T11:41:59;98298.09;;;-2.82;82.52
36598;BME280;22607;49.550;11.940;2022-12-18T11:44:48;98292.31;;;-2.63;81.46
36598;BME280;22607;49.550;11.940;2022-12-18T11:49:47;98299.09;;;-2.86;82.13
36598;BME280;22607;49.550;11.940;2022-12-18T12:09:34;98280.63;;;-2.46;81.08
36598;BME280;22607;49.550;11.940;2022-12-18T12:20:26;98270.00;;;-2.37;81.35
36598;BME280;22607;49.550;11.940;2022-12-18T12:23:03;98273.16;;;-2.54;82.83
36598;BME280;22607;49.550;11.940;2022-12-18T12:39:32;98237.56;;;-2.67;83.84
36598;BME280;22607;49.550;11.940;2022-12-18T12:42:33;98240.47;;;-2.76;82.43
36598;BME280;22607;49.550;11.940;2022-12-18T12:45:27;98240.84;;;-3.12;85.51
36598;BME280;22607;49.550;11.940;2022-12-18T12:47:55;98241.84;;;-3.17;86.95
36598;BME280;22607;49.550;11.940;2022-12-18T12:50:24;98234.81;;;-3.11;87.07
36598;BME280;22607;49.550;11.940;2022-12-18T12:52:52;98225.09;;;-3.03;86.38
36598;BME280;22607;49.550;11.940;2022-12-18T12:55:37;98224.31;;;-3.05;86.70
36598;BME280;22607;49.550;11.940;2022-12-18T12:58:22;98233.69;;;-3.30;87.94
36598;BME280;22607;49.550;11.940;2022-12-18T13:06:50;98238.75;;;-3.01;87.20
36598;BME280;22607;49.550;11.940;2022-12-18T13:09:20;98236.84;;;-3.21;88.76
36598;BME280;22607;49.550;11.940;2022-12-18T13:11:47;98237.50;;;-3.14;88.02
36598;BME280;22607;49.550;11.940;2022-12-18T13:17:29;98235.56;;;-3.08;86.36
36598;BME280;22607;49.550;11.940;2022-12-18T13:20:12;98233.63;;;-3.01;85.91
36598;BME280;22607;49.550;11.940;2022-12-18T13:22:49;98248.50;;;-3.11;85.67
36598;BME280;22607;49.550;11.940;2022-12-18T13:28:13;98257.22;;;-2.90;85.83
36598;BME280;22607;49.550;11.940;2022-12-18T13:30:41;98261.63;;;-2.93;86.77
36598;BME280;22607;49.550;11.940;2022-12-18T13:41:20;98267.19;;;-3.06;87.19
36598;BME280;22607;49.550;11.940;2022-12-18T13:44:50;98262.75;;;-3.02;86.48
36598;BME280;22607;49.550;11.940;2022-12-18T13:46:55;98245.50;;;-3.24;87.83
36598;BME280;22607;49.550;11.940;2022-12-18T13:58:11;98234.63;;;-3.32;88.81
36598;BME280;22607;49.550;11.940;2022-12-18T14:00:44;98236.63;;;-3.40;89.74
36598;BME280;22607;49.550;11.940;2022-12-18T14:03:18;98242.59;;;-3.40;89.95
36598;BME280;22607;49.550;11.940;2022-12-18T14:08:59;98248.78;;;-3.46;89.17
36598;BME280;22607;49.550;11.940;2022-12-18T14:14:58;98253.88;;;-3.73;90.70
36598;BME280;22607;49.550;11.940;2022-12-18T14:23:03;98261.50;;;-3.70;91.52
36598;BME280;22607;49.550;11.940;2022-12-18T14:25:37;98247.06;;;-3.74;91.82
36598;BME280;22607;49.550;11.940;2022-12-18T14:28:22;98245.44;;;-3.76;91.46
36598;BME280;22607;49.550;11.940;2022-12-18T14:30:55;98249.63;;;-3.74;91.72
36598;BME280;22607;49.550;11.940;2022-12-18T14:33:24;98239.66;;;-3.83;92.51
36598;BME280;22607;49.550;11.940;2022-12-18T14:43:41;98236.25;;;-4.12;94.55
36598;BME280;22607;49.550;11.940;2022-12-18T14:49:03;98238.59;;;-4.04;94.21
36598;BME280;22607;49.550;11.940;2022-12-18T14:51:41;98243.91;;;-4.41;96.79
36598;BME280;22607;49.550;11.940;2022-12-18T14:57:42;98240.13;;;-4.59;98.59
36598;BME280;22607;49.550;11.940;2022-12-18T15:00:20;98236.75;;;-4.61;97.44
36598;BME280;22607;49.550;11.940;2022-12-18T15:02:48;98241.06;;;-4.62;98.03
36598;BME280;22607;49.550;11.940;2022-12-18T15:05:21;98234.41;;;-4.69;97.92
36598;BME280;22607;49.550;11.940;2022-12-18T15:07:51;98235.81;;;-4.90;99.45
36598;BME280;22607;49.550;11.940;2022-12-18T15:10:19;98238.56;;;-4.96;100.00
36598;BME280;22607;49.550;11.940;2022-12-18T15:20:45;98236.38;;;-5.12;100.00
36598;BME280;22607;49.550;11.940;2022-12-18T15:23:18;98239.00;;;-5.14;100.00
36598;BME280;22607;49.550;11.940;2022-12-18T15:25:45;98240.97;;;-5.25;100.00
36598;BME280;22607;49.550;11.940;2022-12-18T15:28:17;98241.91;;;-5.28;100.00
36598;BME280;22607;49.550;11.940;2022-12-18T15:30:58;98240.44;;;-5.38;100.00
36598;BME280;22607;49.550;11.940;2022-12-18T15:33:33;98238.72;;;-5.37;100.00
36598;BME280;22607;49.550;11.940;2022-12-18T15:36:00;98238.88;;;-5.44;100.00
36598;BME280;22607;49.550;11.940;2022-12-18T15:38:27;98230.28;;;-5.41;100.00
36598;BME280;22607;49.550;11.940;2022-12-18T15:40:54;98237.00;;;-5.37;100.00
36598;BME280;22607;49.550;11.940;2022-12-18T15:43:24;98250.00;;;-5.45;100.00
36598;BME280;22607;49.550;11.940;2022-12-18T15:46:24;98255.16;;;-5.46;100.00
36598;BME280;22607;49.550;11.940;2022-12-18T15:52:14;98257.34;;;-5.31;100.00
36598;BME280;22607;49.550;11.940;2022-12-18T15:54:51;98255.72;;;-5.35;100.00
36598;BME280;22607;49.550;11.940;2022-12-18T15:57:37;98258.41;;;-5.40;100.00
36598;BME280;22607;49.550;11.940;2022-12-18T16:00:04;98261.72;;;-5.36;100.00
36598;BME280;22607;49.550;11.940;2022-12-18T16:02:31;98257.44;;;-5.34;99.54
36598;BME280;22607;49.550;11.940;2022-12-18T16:04:57;98257.03;;;-5.53;98.99
36598;BME280;22607;49.550;11.940;2022-12-18T16:07:24;98254.97;;;-5.38;98.18
36598;BME280;22607;49.550;11.940;2022-12-18T16:10:03;98258.66;;;-5.50;98.26
36598;BME280;22607;49.550;11.940;2022-12-18T16:12:30;98256.44;;;-5.64;97.58
36598;BME280;22607;49.550;11.940;2022-12-18T16:17:49;98256.06;;;-5.87;96.51
36598;BME280;22607;49.550;11.940;2022-12-18T16:23:16;98247.09;;;-6.03;97.21
36598;BME280;22607;49.550;11.940;2022-12-18T16:25:42;98252.88;;;-5.95;94.33
36598;BME280;22607;49.550;11.940;2022-12-18T16:28:09;98254.16;;;-6.15;95.88
36598;BME280;22607;49.550;11.940;2022-12-18T16:36:54;98247.00;;;-6.40;95.33
36598;BME280;22607;49.550;11.940;2022-12-18T16:39:30;98245.94;;;-6.31;93.93
36598;BME280;22607;49.550;11.940;2022-12-18T16:42:15;98248.50;;;-6.31;93.39
36598;BME280;22607;49.550;11.940;2022-12-18T16:44:43;98252.25;;;-6.46;94.30
36598;BME280;22607;49.550;11.940;2022-12-18T16:47:09;98248.88;;;-6.50;95.65
36598;BME280;22607;49.550;11.940;2022-12-18T17:01:49;98251.38;;;-6.91;94.55
36598;BME280;22607;49.550;11.940;2022-12-18T17:12:40;98260.69;;;-6.88;91.58
36598;BME280;22607;49.550;11.940;2022-12-18T17:15:09;98260.25;;;-7.12;92.87
36598;BME280;22607;49.550;11.940;2022-12-18T17:17:35;98250.34;;;-7.29;94.40
36598;BME280;22607;49.550;11.940;2022-12-18T17:20:02;98242.56;;;-7.23;94.04
36598;BME280;22607;49.550;11.940;2022-12-18T17:22:28;98234.34;;;-7.41;95.23
36598;BME280;22607;49.550;11.940;2022-12-18T17:24:57;98241.09;;;-7.36;95.72
36598;BME280;22607;49.550;11.940;2022-12-18T17:27:23;98240.56;;;-7.56;96.73
36598;BME280;22607;49.550;11.940;2022-12-18T17:29:49;98235.97;;;-7.36;95.89
36598;BME280;22607;49.550;11.940;2022-12-18T17:35:38;98234.34;;;-7.41;94.65
36598;BME280;22607;49.550;11.940;2022-12-18T17:38:04;98236.19;;;-7.49;94.96
36598;BME280;22607;49.550;11.940;2022-12-18T17:40:34;98238.63;;;-7.41;94.78
36598;BME280;22607;49.550;11.940;2022-12-18T17:43:00;98236.25;;;-7.52;95.80
36598;BME280;22607;49.550;11.940;2022-12-18T17:48:57;98239.69;;;-7.55;96.53
36598;BME280;22607;49.550;11.940;2022-12-18T17:51:23;98241.16;;;-7.40;94.91
36598;BME280;22607;49.550;11.940;2022-12-18T17:53:50;98242.00;;;-7.41;94.61
36598;BME280;22607;49.550;11.940;2022-12-18T17:56:17;98232.63;;;-7.39;94.59
36598;BME280;22607;49.550;11.940;2022-12-18T17:58:53;98235.22;;;-7.42;92.92
36598;BME280;22607;49.550;11.940;2022-12-18T18:01:29;98229.97;;;-7.34;92.26
36598;BME280;22607;49.550;11.940;2022-12-18T18:04:02;98223.53;;;-7.55;93.03
36598;BME280;22607;49.550;11.940;2022-12-18T18:06:28;98226.03;;;-7.52;94.06
36598;BME280;22607;49.550;11.940;2022-12-18T18:18:03;98229.06;;;-7.85;95.91
36598;BME280;22607;49.550;11.940;2022-12-18T18:20:29;98231.56;;;-7.80;95.70
36598;BME280;22607;49.550;11.940;2022-12-18T18:22:57;98223.94;;;-7.83;95.76
36598;BME280;22607;49.550;11.940;2022-12-18T18:25:42;98224.69;;;-7.77;96.67
36598;BME280;22607;49.550;11.940;2022-12-18T18:34:05;98238.31;;;-7.76;95.15
36598;BME280;22607;49.550;11.940;2022-12-18T18:36:33;98228.91;;;-7.72;94.57
36598;BME280;22607;49.550;11.940;2022-12-18T18:39:06;98233.28;;;-7.82;94.46